Time;durP1;ratioP1;P1;durP2;ratioP2;P2;SDS_P1;SDS_P2;PMS_P1;PMS_P2;Temp;Humidity;BMP_temperature;BMP_pressure;BME280_temperature;BME280_humidity;BME280_pressure;Samples;Min_cycle;Max_cycle;Signal;HPM_P1;HPM_P2
2023/02/17 00:02:43;;;;;;;;;;;10.20;99.90;;;;;;8390956;28;20334;-69
2023/02/17 00:06:44;;;;;;;;;;;10.20;99.90;;;;;;8389316;28;19961;-69
2023/02/17 00:10:53;;;;;;;;;;;10.20;99.90;;;;;;8368555;28;19975;-69
2023/02/17 00:14:55;;;;;;;;;;;10.20;99.90;;;;;;8390309;28;19924;-69
2023/02/17 00:18:58;;;;;;;;;;;10.20;99.90;;;;;;8362565;28;19974;-69
2023/02/17 00:23:00;;;;;;;;;;;10.30;99.90;;;;;;8368492;28;19928;-69
2023/02/17 00:27:02;;;;;;;;;;;10.30;99.90;;;;;;8389508;28;19933;-69
2023/02/17 00:31:07;;;;;;;;;;;10.30;99.90;;;;;;8386621;28;19932;-69
2023/02/17 00:35:09;;;;;;;;;;;10.30;99.90;;;;;;8381131;28;20372;-69
2023/02/17 00:39:14;;;;;;;;;;;10.30;99.90;;;;;;8372168;28;20362;-69
2023/02/17 00:43:15;;;;;;;;;;;10.30;99.90;;;;;;8376426;28;19971;-69
2023/02/17 00:47:17;;;;;;;;;;;10.30;99.90;;;;;;8385812;28;19924;-69
2023/02/17 00:51:19;;;;;;;;;;;10.30;99.90;;;;;;8388604;28;19925;-69
2023/02/17 00:55:20;;;;;;;;;;;10.30;99.90;;;;;;8371383;28;20369;-69
2023/02/17 00:59:22;;;;;;;;;;;10.30;99.90;;;;;;8375982;28;20222;-69
2023/02/17 01:03:24;;;;;;;;;;;10.30;99.90;;;;;;8366899;28;19979;-69
2023/02/17 01:07:25;;;;;;;;;;;10.30;99.90;;;;;;8380039;28;19924;-69
2023/02/17 01:11:28;;;;;;;;;;;10.20;99.90;;;;;;8391843;28;19924;-69
2023/02/17 01:15:31;;;;;;;;;;;10.20;99.90;;;;;;8380821;28;19967;-69
2023/02/17 01:19:33;;;;;;;;;;;10.20;99.90;;;;;;8361414;28;19974;-69
2023/02/17 01:23:34;;;;;;;;;;;10.10;99.90;;;;;;8380578;28;19929;-69
2023/02/17 01:27:36;;;;;;;;;;;10.10;99.90;;;;;;8380087;28;19924;-69
2023/02/17 01:31:38;;;;;;;;;;;10.10;99.90;;;;;;8389888;28;19968;-69
2023/02/17 01:35:40;;;;;;;;;;;10.10;99.90;;;;;;8383889;28;20335;-69
2023/02/17 01:39:42;;;;;;;;;;;10.10;99.90;;;;;;8375686;28;20377;-69
2023/02/17 01:44:03;;;;;;;;;;;10.10;99.90;;;;;;8360099;28;20442;-69
2023/02/17 01:48:08;;;;;;;;;;;10.10;99.90;;;;;;8370697;28;19956;-69
2023/02/17 01:52:11;;;;;;;;;;;10.00;99.90;;;;;;8366899;28;20035;-69
2023/02/17 01:56:14;;;;;;;;;;;10.00;99.90;;;;;;8349795;28;19925;-69
2023/02/17 02:00:16;;;;;;;;;;;10.00;99.90;;;;;;8372640;28;19928;-69
2023/02/17 02:04:20;;;;;;;;;;;9.90;99.90;;;;;;8384364;28;19925;-69
2023/02/17 02:08:21;;;;;;;;;;;9.90;99.90;;;;;;8371901;28;19943;-69
2023/02/17 02:12:28;;;;;;;;;;;9.90;99.90;;;;;;8384780;28;19970;-69
2023/02/17 02:16:46;;;;;;;;;;;9.80;99.90;;;;;;8384907;28;19976;-69
2023/02/17 02:20:54;;;;;;;;;;;9.80;99.90;;;;;;8394816;28;19985;-69
2023/02/17 02:24:56;;;;;;;;;;;9.80;99.90;;;;;;8382597;28;19925;-69
2023/02/17 02:29:16;;;;;;;;;;;9.80;99.90;;;;;;8367386;28;19978;-69
2023/02/17 02:33:25;;;;;;;;;;;9.80;99.90;;;;;;8371659;28;20132;-69
2023/02/17 02:37:32;;;;;;;;;;;9.70;99.90;;;;;;8390109;28;19924;-69
2023/02/17 02:41:39;;;;;;;;;;;9.70;99.90;;;;;;8382864;28;19952;-69
2023/02/17 02:45:41;;;;;;;;;;;9.70;99.90;;;;;;8386405;28;19932;-69
2023/02/17 02:49:42;;;;;;;;;;;9.80;99.90;;;;;;8339512;28;19933;-69
2023/02/17 02:54:02;;;;;;;;;;;9.80;99.90;;;;;;8376899;28;19935;-69
2023/02/17 02:58:16;;;;;;;;;;;9.80;99.90;;;;;;8388462;28;19929;-69
2023/02/17 03:02:26;;;;;;;;;;;9.80;99.90;;;;;;8376072;28;19925;-69
2023/02/17 03:06:30;;;;;;;;;;;9.90;99.90;;;;;;8393337;28;19931;-69
2023/02/17 03:10:32;;;;;;;;;;;9.90;99.90;;;;;;8383592;28;19929;-69
2023/02/17 03:14:35;;;;;;;;;;;9.90;99.90;;;;;;8388914;28;20144;-69
2023/02/17 03:18:37;;;;;;;;;;;9.90;99.90;;;;;;8386711;28;19924;-69
2023/02/17 03:22:40;;;;;;;;;;;9.90;99.90;;;;;;8396199;28;19979;-69
2023/02/17 03:26:41;;;;;;;;;;;10.00;99.90;;;;;;8383915;28;19938;-69
2023/02/17 03:30:43;;;;;;;;;;;10.00;99.90;;;;;;8389443;28;19925;-69
2023/02/17 03:34:45;;;;;;;;;;;10.00;99.90;;;;;;8379283;28;19963;-69
2023/02/17 03:38:46;;;;;;;;;;;10.00;99.90;;;;;;8361865;28;19924;-69
2023/02/17 03:42:48;;;;;;;;;;;10.00;99.90;;;;;;8382951;28;19932;-69
2023/02/17 03:46:50;;;;;;;;;;;10.00;99.90;;;;;;8392954;28;19928;-69
2023/02/17 03:50:51;;;;;;;;;;;10.00;99.90;;;;;;8387936;28;19947;-69
2023/02/17 03:54:53;;;;;;;;;;;10.10;99.90;;;;;;8398620;28;20548;-69
2023/02/17 03:58:54;;;;;;;;;;;10.10;99.90;;;;;;8385030;28;19975;-69
2023/02/17 04:02:56;;;;;;;;;;;10.10;99.90;;;;;;8391383;28;19969;-69
2023/02/17 04:06:58;;;;;;;;;;;10.10;99.90;;;;;;8363830;28;19934;-69
2023/02/17 04:11:00;;;;;;;;;;;10.10;99.90;;;;;;8380455;28;19931;-69
2023/02/17 04:15:02;;;;;;;;;;;10.10;99.90;;;;;;8394044;28;19924;-69
2023/02/17 04:19:05;;;;;;;;;;;10.10;99.90;;;;;;8385950;28;20244;-69
2023/02/17 04:23:06;;;;;;;;;;;10.10;99.90;;;;;;8387041;28;20016;-69
2023/02/17 04:27:08;;;;;;;;;;;10.10;99.90;;;;;;8375594;28;19993;-69
2023/02/17 04:36:13;;;;;;;;;;;10.10;99.90;;;;;;8371219;28;19926;-69
2023/02/17 04:40:15;;;;;;;;;;;10.10;99.90;;;;;;8383086;28;20132;-69
2023/02/17 04:44:16;;;;;;;;;;;10.00;99.90;;;;;;8385555;28;19931;-69
2023/02/17 04:48:18;;;;;;;;;;;10.00;99.90;;;;;;8392595;28;19931;-69
2023/02/17 04:52:20;;;;;;;;;;;10.00;99.90;;;;;;8374651;28;19967;-69
2023/02/17 04:56:22;;;;;;;;;;;9.90;99.90;;;;;;8391576;28;19930;-69
2023/02/17 05:00:23;;;;;;;;;;;9.90;99.90;;;;;;8373551;28;20285;-69
2023/02/17 05:04:25;;;;;;;;;;;9.90;99.90;;;;;;8372565;28;19940;-68
2023/02/17 05:08:27;;;;;;;;;;;9.90;99.90;;;;;;8384927;28;19978;-69
2023/02/17 05:12:28;;;;;;;;;;;9.90;99.90;;;;;;8382035;28;20280;-69
2023/02/17 05:16:30;;;;;;;;;;;9.90;99.90;;;;;;8378167;28;19930;-69
2023/02/17 05:20:32;;;;;;;;;;;9.90;99.90;;;;;;8387732;28;19924;-70
2023/02/17 05:24:33;;;;;;;;;;;9.90;99.90;;;;;;8390979;28;19950;-69
2023/02/17 05:28:35;;;;;;;;;;;9.90;99.90;;;;;;8382597;28;19932;-70
2023/02/17 05:32:37;;;;;;;;;;;9.90;99.90;;;;;;8378098;28;19960;-69
2023/02/17 05:36:38;;;;;;;;;;;9.90;99.90;;;;;;8386122;28;20334;-69
2023/02/17 05:40:40;;;;;;;;;;;9.90;99.90;;;;;;8379624;28;19982;-69
2023/02/17 05:44:42;;;;;;;;;;;10.00;99.90;;;;;;8385405;28;19940;-69
2023/02/17 05:48:44;;;;;;;;;;;10.00;99.90;;;;;;8364268;28;19925;-70
2023/02/17 05:52:46;;;;;;;;;;;9.90;99.90;;;;;;8382608;28;19960;-69
2023/02/17 05:56:47;;;;;;;;;;;9.90;99.90;;;;;;8377620;28;20368;-69
2023/02/17 06:00:49;;;;;;;;;;;9.80;99.90;;;;;;8397071;28;19925;-70
2023/02/17 06:04:51;;;;;;;;;;;9.90;99.90;;;;;;8400463;28;20383;-69
2023/02/17 06:08:53;;;;;;;;;;;9.90;99.90;;;;;;8394151;28;19967;-69
2023/02/17 06:12:54;;;;;;;;;;;9.90;99.90;;;;;;8386630;28;20430;-69
2023/02/17 06:16:56;;;;;;;;;;;9.90;99.90;;;;;;8390314;28;19935;-69
2023/02/17 06:20:59;;;;;;;;;;;9.90;99.90;;;;;;8388033;28;19977;-69
2023/02/17 06:25:01;;;;;;;;;;;9.90;99.90;;;;;;8383022;28;19981;-69
2023/02/17 06:29:02;;;;;;;;;;;9.90;99.90;;;;;;8381474;28;19931;-69
2023/02/17 06:33:04;;;;;;;;;;;9.90;99.90;;;;;;8385525;28;19924;-69
2023/02/17 06:37:06;;;;;;;;;;;9.90;99.90;;;;;;8395109;28;19932;-69
2023/02/17 06:41:07;;;;;;;;;;;9.90;99.90;;;;;;8390854;28;19924;-69
2023/02/17 06:45:09;;;;;;;;;;;9.90;99.90;;;;;;8378411;28;19924;-69
2023/02/17 06:49:11;;;;;;;;;;;10.00;99.90;;;;;;8382780;28;20343;-69
2023/02/17 06:53:12;;;;;;;;;;;10.00;99.90;;;;;;8387318;28;19991;-69
2023/02/17 06:57:14;;;;;;;;;;;10.00;99.90;;;;;;8375916;28;19960;-69
2023/02/17 07:01:17;;;;;;;;;;;10.00;99.90;;;;;;8394747;28;19959;-70
2023/02/17 07:05:19;;;;;;;;;;;10.00;99.90;;;;;;8384523;28;19968;-70
2023/02/17 07:09:20;;;;;;;;;;;10.00;99.90;;;;;;8377390;28;19925;-69
2023/02/17 07:13:22;;;;;;;;;;;10.10;99.90;;;;;;8390011;28;19964;-70
2023/02/17 07:17:24;;;;;;;;;;;10.10;99.90;;;;;;8377787;28;20288;-70
2023/02/17 07:21:25;;;;;;;;;;;10.10;99.90;;;;;;8386054;28;19970;-69
2023/02/17 07:25:27;;;;;;;;;;;10.10;99.90;;;;;;8389763;28;19924;-70
2023/02/17 07:29:28;;;;;;;;;;;10.20;99.90;;;;;;8387355;28;19929;-70
2023/02/17 07:33:30;;;;;;;;;;;10.20;99.90;;;;;;8384317;28;20261;-69
2023/02/17 07:37:32;;;;;;;;;;;10.30;99.90;;;;;;8379626;28;19925;-69
2023/02/17 07:41:34;;;;;;;;;;;10.30;99.90;;;;;;8375362;28;19936;-69
2023/02/17 07:45:36;;;;;;;;;;;10.30;99.90;;;;;;8382782;28;20388;-70
2023/02/17 07:49:37;;;;;;;;;;;10.40;99.90;;;;;;8394831;28;19933;-70
2023/02/17 07:53:39;;;;;;;;;;;10.40;99.90;;;;;;8400736;28;19944;-70
2023/02/17 07:57:41;;;;;;;;;;;10.40;99.90;;;;;;8391129;28;19924;-70
2023/02/17 08:01:42;;;;;;;;;;;10.50;99.90;;;;;;8382751;28;20023;-70
2023/02/17 08:05:44;;;;;;;;;;;10.50;99.90;;;;;;8369909;28;19952;-70
2023/02/17 08:14:08;;;;;;;;;;;10.60;99.90;;;;;;8381714;28;20011;-70
2023/02/17 08:18:11;;;;;;;;;;;10.70;99.90;;;;;;8393881;28;20350;-70
2023/02/17 08:22:13;;;;;;;;;;;10.70;99.90;;;;;;8396923;28;19924;-70
2023/02/17 08:26:14;;;;;;;;;;;10.70;99.90;;;;;;8391111;28;19932;-70
2023/02/17 08:30:16;;;;;;;;;;;10.80;99.90;;;;;;8393460;28;19940;-70
2023/02/17 08:34:18;;;;;;;;;;;10.80;99.90;;;;;;8398954;28;19924;-70
2023/02/17 08:38:19;;;;;;;;;;;10.90;99.90;;;;;;8395021;28;19925;-70
2023/02/17 08:42:21;;;;;;;;;;;10.90;99.90;;;;;;8365327;28;19932;-70
2023/02/17 08:46:23;;;;;;;;;;;11.00;99.90;;;;;;8375548;28;19925;-70
2023/02/17 08:50:24;;;;;;;;;;;11.00;99.90;;;;;;8393448;28;19924;-70
2023/02/17 08:54:26;;;;;;;;;;;11.00;99.90;;;;;;8393323;28;19966;-70
2023/02/17 08:58:28;;;;;;;;;;;11.00;99.90;;;;;;8392910;28;19924;-70
2023/02/17 09:02:30;;;;;;;;;;;11.10;99.90;;;;;;8393461;28;19924;-70
2023/02/17 09:06:33;;;;;;;;;;;11.10;99.90;;;;;;8389397;28;20386;-70
2023/02/17 09:10:35;;;;;;;;;;;11.10;99.90;;;;;;8385407;28;19925;-70
2023/02/17 09:14:37;;;;;;;;;;;11.20;99.90;;;;;;8395913;28;19931;-70
2023/02/17 09:18:39;;;;;;;;;;;11.20;99.90;;;;;;8398057;28;20363;-70
2023/02/17 09:22:40;;;;;;;;;;;11.20;99.90;;;;;;8390091;28;20278;-70
2023/02/17 09:26:42;;;;;;;;;;;11.20;99.90;;;;;;8392840;28;19925;-70
2023/02/17 09:30:44;;;;;;;;;;;11.30;99.90;;;;;;8405437;28;20007;-70
2023/02/17 09:34:49;;;;;;;;;;;11.30;99.90;;;;;;8387455;28;20447;-69
2023/02/17 09:38:51;;;;;;;;;;;11.30;99.90;;;;;;8389841;28;20369;-69
2023/02/17 09:42:52;;;;;;;;;;;11.40;99.90;;;;;;8384830;28;20375;-69
2023/02/17 09:46:58;;;;;;;;;;;11.40;99.90;;;;;;8396110;28;19925;-70
2023/02/17 09:51:03;;;;;;;;;;;11.40;99.90;;;;;;8384772;28;20226;-70
2023/02/17 09:55:07;;;;;;;;;;;11.40;99.90;;;;;;8391867;28;19938;-70
2023/02/17 09:59:20;;;;;;;;;;;11.30;99.90;;;;;;8405113;28;19924;-69
2023/02/17 10:03:25;;;;;;;;;;;11.40;99.90;;;;;;8385804;28;19924;-69
2023/02/17 10:07:29;;;;;;;;;;;11.40;99.90;;;;;;8400007;28;20233;-69
2023/02/17 10:11:37;;;;;;;;;;;11.40;99.90;;;;;;8398960;28;20019;-70
2023/02/17 10:15:39;;;;;;;;;;;11.40;99.90;;;;;;8395132;28;19931;-69
2023/02/17 10:19:53;;;;;;;;;;;11.40;99.90;;;;;;8399762;28;19953;-70
2023/02/17 10:23:55;;;;;;;;;;;11.40;99.90;;;;;;8381274;28;19931;-70
2023/02/17 10:28:07;;;;;;;;;;;11.40;99.90;;;;;;8398410;28;19929;-70
2023/02/17 10:32:14;;;;;;;;;;;11.50;99.90;;;;;;8381745;28;19986;-69
2023/02/17 10:36:38;;;;;;;;;;;11.50;99.90;;;;;;8396331;28;19924;-70
2023/02/17 10:40:41;;;;;;;;;;;11.50;99.90;;;;;;8388877;28;19979;-70
2023/02/17 10:44:42;;;;;;;;;;;11.50;99.90;;;;;;8392121;28;19931;-70
2023/02/17 10:48:49;;;;;;;;;;;11.50;99.90;;;;;;8401725;28;19979;-70
2023/02/17 10:52:52;;;;;;;;;;;11.50;99.90;;;;;;8391420;28;19971;-69
2023/02/17 10:56:55;;;;;;;;;;;11.40;99.90;;;;;;8387259;28;20080;-69
2023/02/17 11:00:57;;;;;;;;;;;11.40;99.90;;;;;;8387427;28;20019;-69
2023/02/17 11:04:59;;;;;;;;;;;11.40;99.90;;;;;;8392060;28;19929;-70
2023/02/17 11:09:02;;;;;;;;;;;11.40;99.90;;;;;;8395003;28;20380;-70
2023/02/17 11:13:17;;;;;;;;;;;11.40;99.90;;;;;;8396300;28;19929;-69
2023/02/17 11:17:22;;;;;;;;;;;11.50;99.90;;;;;;8388563;28;19986;-70
2023/02/17 11:21:26;;;;;;;;;;;11.60;99.90;;;;;;8393300;28;20299;-70
2023/02/17 11:25:31;;;;;;;;;;;11.60;99.90;;;;;;8392387;28;19967;-71
2023/02/17 11:29:33;;;;;;;;;;;11.60;99.90;;;;;;8388699;28;19967;-70
2023/02/17 11:33:38;;;;;;;;;;;11.60;99.90;;;;;;8398086;28;19931;-70
2023/02/17 11:37:42;;;;;;;;;;;11.60;99.90;;;;;;8387236;28;20340;-70
2023/02/17 11:41:43;;;;;;;;;;;11.50;99.90;;;;;;8357520;28;19979;-69
2023/02/17 11:46:08;;;;;;;;;;;11.50;99.90;;;;;;8353574;28;19970;-69
2023/02/17 11:50:30;;;;;;;;;;;11.50;99.90;;;;;;8335542;28;19932;-70
2023/02/17 11:54:42;;;;;;;;;;;11.50;99.90;;;;;;8358937;28;19929;-70
2023/02/17 11:59:05;;;;;;;;;;;11.50;99.90;;;;;;8357563;28;19939;-70
2023/02/17 12:03:19;;;;;;;;;;;11.50;99.90;;;;;;8370724;28;19928;-69
2023/02/17 12:07:38;;;;;;;;;;;11.40;99.90;;;;;;8358250;28;19933;-70
2023/02/17 12:11:47;;;;;;;;;;;11.40;99.90;;;;;;8361739;28;19929;-70
2023/02/17 12:15:58;;;;;;;;;;;11.40;99.90;;;;;;8361301;28;19924;-70
2023/02/17 12:20:19;;;;;;;;;;;11.40;99.90;;;;;;8358113;28;19943;-69
2023/02/17 12:24:32;;;;;;;;;;;11.40;99.90;;;;;;8358663;28;19979;-70
2023/02/17 12:28:40;;;;;;;;;;;11.30;99.90;;;;;;8361428;28;19925;-70
2023/02/17 12:32:51;;;;;;;;;;;11.30;99.90;;;;;;8359681;28;19925;-70
2023/02/17 12:36:55;;;;;;;;;;;11.20;99.90;;;;;;8358386;28;19925;-70
2023/02/17 12:41:05;;;;;;;;;;;11.20;99.90;;;;;;8359789;28;19933;-70
2023/02/17 12:45:13;;;;;;;;;;;11.20;99.90;;;;;;8357073;28;19925;-70
2023/02/17 12:49:33;;;;;;;;;;;11.20;99.90;;;;;;8356116;28;19935;-70
2023/02/17 12:53:45;;;;;;;;;;;11.10;99.90;;;;;;8340081;28;20406;-70
2023/02/17 12:57:59;;;;;;;;;;;11.10;99.90;;;;;;8358594;28;19928;-70
2023/02/17 13:02:04;;;;;;;;;;;11.20;99.90;;;;;;8360617;28;20290;-70
2023/02/17 13:06:12;;;;;;;;;;;11.20;99.90;;;;;;8359597;28;19932;-70
2023/02/17 13:10:18;;;;;;;;;;;11.20;99.90;;;;;;8362925;28;19928;-70
2023/02/17 13:14:24;;;;;;;;;;;11.20;99.90;;;;;;8357068;28;19950;-70
2023/02/17 13:18:27;;;;;;;;;;;11.20;99.90;;;;;;8366731;28;19929;-69
2023/02/17 13:22:29;;;;;;;;;;;11.30;99.90;;;;;;8340768;28;19932;-69
2023/02/17 13:26:30;;;;;;;;;;;11.40;99.90;;;;;;8356557;28;19925;-70
2023/02/17 13:30:39;;;;;;;;;;;11.40;99.90;;;;;;8362987;28;20022;-69
2023/02/17 13:34:42;;;;;;;;;;;11.40;99.90;;;;;;8345092;28;20323;-69
2023/02/17 13:38:55;;;;;;;;;;;11.40;99.90;;;;;;8362146;28;20011;-70
2023/02/17 13:43:06;;;;;;;;;;;11.40;99.90;;;;;;8360396;28;19955;-70
2023/02/17 13:47:13;;;;;;;;;;;11.40;99.90;;;;;;8336245;28;19931;-70
2023/02/17 13:51:26;;;;;;;;;;;11.50;99.90;;;;;;8362251;28;20036;-70
2023/02/17 13:55:28;;;;;;;;;;;11.50;99.90;;;;;;8343727;28;19934;-69
2023/02/17 13:59:30;;;;;;;;;;;11.60;99.90;;;;;;8359731;28;19932;-70
2023/02/17 14:03:31;;;;;;;;;;;11.60;99.90;;;;;;8359420;28;19971;-70
2023/02/17 14:07:34;;;;;;;;;;;11.60;99.90;;;;;;8356876;28;20011;-70
2023/02/17 14:11:35;;;;;;;;;;;11.50;99.90;;;;;;8356356;28;19925;-70
2023/02/17 14:15:47;;;;;;;;;;;11.50;99.90;;;;;;8356170;28;19976;-70
2023/02/17 14:19:50;;;;;;;;;;;11.50;99.90;;;;;;8361070;28;19925;-70
2023/02/17 14:23:52;;;;;;;;;;;11.50;99.90;;;;;;8370295;28;19944;-69
2023/02/17 14:27:55;;;;;;;;;;;11.50;99.90;;;;;;8367977;28;19924;-70
2023/02/17 14:31:56;;;;;;;;;;;11.60;99.90;;;;;;8357324;28;19975;-72
2023/02/17 14:36:06;;;;;;;;;;;11.60;99.90;;;;;;8351209;28;22417;-72
2023/02/17 14:40:18;;;;;;;;;;;11.60;99.90;;;;;;8366782;28;20023;-72
2023/02/17 14:44:20;;;;;;;;;;;11.60;99.90;;;;;;8353905;28;19931;-72
2023/02/17 14:48:24;;;;;;;;;;;11.60;99.90;;;;;;8357745;28;19925;-72
2023/02/17 14:52:28;;;;;;;;;;;11.60;99.90;;;;;;8366847;28;19936;-72
2023/02/17 14:56:34;;;;;;;;;;;11.60;99.90;;;;;;8365666;28;20017;-72
2023/02/17 15:00:36;;;;;;;;;;;11.70;99.90;;;;;;8367828;28;20680;-72
2023/02/17 15:04:38;;;;;;;;;;;11.70;99.90;;;;;;8358475;28;19972;-72
2023/02/17 15:08:40;;;;;;;;;;;11.70;99.90;;;;;;8352208;28;19982;-72
2023/02/17 15:12:41;;;;;;;;;;;11.70;99.90;;;;;;8367555;28;19932;-72
2023/02/17 15:16:43;;;;;;;;;;;11.60;99.90;;;;;;8362224;28;20399;-70
2023/02/17 15:20:46;;;;;;;;;;;11.70;99.90;;;;;;8359646;28;19971;-69
2023/02/17 15:24:48;;;;;;;;;;;11.70;99.90;;;;;;8360534;28;20348;-69
2023/02/17 15:28:50;;;;;;;;;;;11.70;99.90;;;;;;8353684;28;19932;-69
2023/02/17 15:32:51;;;;;;;;;;;11.70;99.90;;;;;;8370758;28;20015;-70
2023/02/17 15:36:53;;;;;;;;;;;11.70;99.90;;;;;;8362748;28;19932;-69
2023/02/17 15:40:58;;;;;;;;;;;11.70;99.90;;;;;;8371824;28;19925;-70
2023/02/17 15:44:59;;;;;;;;;;;11.70;99.90;;;;;;8358316;28;19933;-69
2023/02/17 15:49:01;;;;;;;;;;;11.70;99.90;;;;;;8366837;28;20487;-70
2023/02/17 15:53:02;;;;;;;;;;;11.70;99.90;;;;;;8366161;28;20351;-69
2023/02/17 15:57:06;;;;;;;;;;;11.60;99.90;;;;;;8369276;28;19928;-70
2023/02/17 16:01:15;;;;;;;;;;;11.60;99.90;;;;;;8357506;28;20362;-70
2023/02/17 16:05:18;;;;;;;;;;;11.50;99.90;;;;;;8356657;28;19932;-70
2023/02/17 16:09:20;;;;;;;;;;;11.60;99.90;;;;;;8361854;28;19932;-69
2023/02/17 16:13:24;;;;;;;;;;;11.60;99.90;;;;;;8358274;28;19929;-69
2023/02/17 16:17:25;;;;;;;;;;;11.60;99.90;;;;;;8357184;28;20402;-69
2023/02/17 16:21:27;;;;;;;;;;;11.50;99.90;;;;;;8357125;28;20395;-69
2023/02/17 16:25:29;;;;;;;;;;;11.50;99.90;;;;;;8361177;28;20468;-69
2023/02/17 16:29:30;;;;;;;;;;;11.50;99.90;;;;;;8356963;28;20023;-69
2023/02/17 16:33:33;;;;;;;;;;;11.50;99.90;;;;;;8353475;28;19924;-69
2023/02/17 16:37:34;;;;;;;;;;;11.40;99.90;;;;;;8345563;28;19924;-69
2023/02/17 16:41:36;;;;;;;;;;;11.40;99.90;;;;;;8360891;28;20019;-69
2023/02/17 16:45:44;;;;;;;;;;;11.40;99.90;;;;;;8357222;28;20390;-69
2023/02/17 16:49:46;;;;;;;;;;;11.30;99.90;;;;;;8357413;28;20349;-69
2023/02/17 16:53:48;;;;;;;;;;;11.30;99.90;;;;;;8358497;28;20027;-69
2023/02/17 16:57:49;;;;;;;;;;;11.30;99.90;;;;;;8356989;28;20384;-69
2023/02/17 17:01:52;;;;;;;;;;;11.30;99.90;;;;;;8359627;28;19924;-69
2023/02/17 17:05:53;;;;;;;;;;;11.30;99.90;;;;;;8357927;28;20307;-69
2023/02/17 17:09:55;;;;;;;;;;;11.20;99.90;;;;;;8354787;28;19925;-69
2023/02/17 17:14:16;;;;;;;;;;;11.10;99.90;;;;;;8357985;28;19929;-69
2023/02/17 17:18:20;;;;;;;;;;;11.10;99.90;;;;;;8356263;28;20357;-69
2023/02/17 17:22:22;;;;;;;;;;;11.00;99.90;;;;;;8357610;28;19924;-69
2023/02/17 17:26:40;;;;;;;;;;;11.00;99.90;;;;;;8350467;28;19925;-69
2023/02/17 17:30:42;;;;;;;;;;;11.00;99.90;;;;;;8352034;28;19933;-69
2023/02/17 17:34:43;;;;;;;;;;;11.00;99.90;;;;;;8353151;28;19928;-69
2023/02/17 17:38:45;;;;;;;;;;;10.90;99.90;;;;;;8354513;28;19928;-69
2023/02/17 17:42:47;;;;;;;;;;;10.90;99.90;;;;;;8356121;28;20330;-69
2023/02/17 17:46:48;;;;;;;;;;;10.80;99.90;;;;;;8353685;28;20004;-69
2023/02/17 17:50:50;;;;;;;;;;;10.80;99.90;;;;;;8358447;28;20039;-69
2023/02/17 17:54:52;;;;;;;;;;;10.80;99.90;;;;;;8346480;28;20359;-69
2023/02/17 17:58:54;;;;;;;;;;;10.80;99.90;;;;;;8357401;28;19928;-69
2023/02/17 18:02:55;;;;;;;;;;;10.80;99.90;;;;;;8365549;28;19964;-69
2023/02/17 18:06:57;;;;;;;;;;;10.80;99.90;;;;;;8368424;28;20027;-69
2023/02/17 18:10:59;;;;;;;;;;;10.90;99.90;;;;;;8366513;28;19924;-69
2023/02/17 18:15:03;;;;;;;;;;;10.90;99.90;;;;;;8370178;28;19933;-69
2023/02/17 18:19:05;;;;;;;;;;;10.90;99.90;;;;;;8370116;28;20111;-69
2023/02/17 18:23:07;;;;;;;;;;;11.00;99.90;;;;;;8345582;28;19961;-70
2023/02/17 18:27:09;;;;;;;;;;;11.00;99.90;;;;;;8357821;28;20391;-69
2023/02/17 18:31:11;;;;;;;;;;;11.00;99.90;;;;;;8370796;28;19924;-70
2023/02/17 18:35:14;;;;;;;;;;;11.10;99.90;;;;;;8365639;28;19970;-69
2023/02/17 18:39:15;;;;;;;;;;;11.10;99.90;;;;;;8352127;28;19974;-69
2023/02/17 18:43:17;;;;;;;;;;;11.10;99.90;;;;;;8354854;28;19952;-69
2023/02/17 18:47:20;;;;;;;;;;;11.00;99.90;;;;;;8362330;28;19960;-69
2023/02/17 18:51:22;;;;;;;;;;;11.00;99.90;;;;;;8369327;28;19940;-69
2023/02/17 18:55:23;;;;;;;;;;;10.90;99.90;;;;;;8364679;28;20225;-69
2023/02/17 18:59:25;;;;;;;;;;;10.90;99.90;;;;;;8371318;28;19940;-69
2023/02/17 19:03:28;;;;;;;;;;;10.80;99.90;;;;;;8375627;28;19976;-69
2023/02/17 19:07:30;;;;;;;;;;;10.80;99.90;;;;;;8360339;28;19932;-69
2023/02/17 19:11:32;;;;;;;;;;;10.70;99.90;;;;;;8358077;28;19947;-69
2023/02/17 19:15:33;;;;;;;;;;;10.70;99.90;;;;;;8362492;28;20232;-69
2023/02/17 19:19:38;;;;;;;;;;;10.60;99.90;;;;;;8362515;28;19925;-69
2023/02/17 19:23:40;;;;;;;;;;;10.60;99.90;;;;;;8364164;28;20377;-69
2023/02/17 19:27:42;;;;;;;;;;;10.60;99.90;;;;;;8344914;28;19932;-69
2023/02/17 19:31:43;;;;;;;;;;;10.60;99.90;;;;;;8354326;28;19933;-69
2023/02/17 19:35:45;;;;;;;;;;;10.60;99.90;;;;;;8362063;28;19933;-69
2023/02/17 19:39:47;;;;;;;;;;;10.60;99.90;;;;;;8360572;28;19988;-69
2023/02/17 19:43:49;;;;;;;;;;;10.60;99.90;;;;;;8342833;28;20375;-69
2023/02/17 19:47:51;;;;;;;;;;;10.60;99.90;;;;;;8359083;28;19925;-69
2023/02/17 19:51:54;;;;;;;;;;;10.60;99.90;;;;;;8359553;28;19925;-69
2023/02/17 19:56:04;;;;;;;;;;;10.60;99.90;;;;;;8352979;28;20242;-69
2023/02/17 20:00:08;;;;;;;;;;;10.60;99.90;;;;;;8363259;28;19951;-69
2023/02/17 20:04:10;;;;;;;;;;;10.70;99.90;;;;;;8356851;28;19963;-69
2023/02/17 20:08:11;;;;;;;;;;;10.70;99.90;;;;;;8352173;28;19925;-69
2023/02/17 20:12:13;;;;;;;;;;;10.70;99.90;;;;;;8360343;28;19972;-69
2023/02/17 20:16:15;;;;;;;;;;;10.70;99.90;;;;;;8377027;28;19932;-69
2023/02/17 20:20:17;;;;;;;;;;;10.70;99.90;;;;;;8349944;28;19924;-69
2023/02/17 20:24:18;;;;;;;;;;;10.70;99.90;;;;;;8358226;28;19929;-69
2023/02/17 20:28:20;;;;;;;;;;;10.60;99.90;;;;;;8350946;28;20435;-69
2023/02/17 20:32:22;;;;;;;;;;;10.60;99.90;;;;;;8357967;28;19925;-69
2023/02/17 20:36:24;;;;;;;;;;;10.60;99.90;;;;;;8356302;28;19969;-69
2023/02/17 20:40:25;;;;;;;;;;;10.60;99.90;;;;;;8358719;28;20061;-69
2023/02/17 20:44:27;;;;;;;;;;;10.60;99.90;;;;;;8368454;28;19932;-69
2023/02/17 20:48:29;;;;;;;;;;;10.50;99.90;;;;;;8359312;28;19936;-69
2023/02/17 20:52:30;;;;;;;;;;;10.50;99.90;;;;;;8357152;28;19967;-69
2023/02/17 20:56:33;;;;;;;;;;;10.50;99.90;;;;;;8360607;28;19933;-69
2023/02/17 21:00:35;;;;;;;;;;;10.50;99.90;;;;;;8360972;28;19925;-69
2023/02/17 21:04:37;;;;;;;;;;;10.50;99.90;;;;;;8362426;28;20332;-69
2023/02/17 21:08:38;;;;;;;;;;;10.50;99.90;;;;;;8363521;28;19932;-69
2023/02/17 21:12:40;;;;;;;;;;;10.50;99.90;;;;;;8338233;28;19933;-69
2023/02/17 21:16:41;;;;;;;;;;;10.50;99.90;;;;;;8350081;28;19931;-69
2023/02/17 21:20:43;;;;;;;;;;;10.50;99.90;;;;;;8358249;28;24284;-69
2023/02/17 21:24:45;;;;;;;;;;;10.50;99.90;;;;;;8360536;28;19968;-69
2023/02/17 21:28:46;;;;;;;;;;;10.50;99.90;;;;;;8356615;28;20016;-69
2023/02/17 21:32:48;;;;;;;;;;;10.50;99.90;;;;;;8362842;28;20054;-69
2023/02/17 21:36:49;;;;;;;;;;;10.50;99.90;;;;;;8358984;28;20376;-69
2023/02/17 21:40:51;;;;;;;;;;;10.50;99.90;;;;;;8358900;28;19975;-69
2023/02/17 21:44:58;;;;;;;;;;;10.60;99.90;;;;;;8362273;28;19930;-69
2023/02/17 21:49:00;;;;;;;;;;;10.60;99.90;;;;;;8362528;28;20416;-69
2023/02/17 21:53:02;;;;;;;;;;;10.50;99.90;;;;;;8363453;28;19939;-69
2023/02/17 21:57:04;;;;;;;;;;;10.50;99.90;;;;;;8350167;28;19976;-69
2023/02/17 22:01:06;;;;;;;;;;;10.50;99.90;;;;;;8367096;28;20011;-69
2023/02/17 22:05:07;;;;;;;;;;;10.40;99.90;;;;;;8369368;28;19925;-69
2023/02/17 22:09:11;;;;;;;;;;;10.40;99.90;;;;;;8389941;28;19931;-69
2023/02/17 22:13:12;;;;;;;;;;;10.40;99.90;;;;;;8386321;28;19930;-69
2023/02/17 22:17:14;;;;;;;;;;;10.40;99.90;;;;;;8386066;28;20396;-69
2023/02/17 22:21:16;;;;;;;;;;;10.40;99.90;;;;;;8385965;28;19928;-69
2023/02/17 22:25:18;;;;;;;;;;;10.40;99.90;;;;;;8386837;28;19924;-69
2023/02/17 22:29:19;;;;;;;;;;;10.40;99.90;;;;;;8385926;28;20371;-69
2023/02/17 22:33:21;;;;;;;;;;;10.40;99.90;;;;;;8386052;28;20639;-69
2023/02/17 22:37:22;;;;;;;;;;;10.40;99.90;;;;;;8398330;28;20384;-69
2023/02/17 22:41:24;;;;;;;;;;;10.50;99.90;;;;;;8380305;28;19928;-69
2023/02/17 22:45:26;;;;;;;;;;;10.50;99.90;;;;;;8395797;28;19928;-69
2023/02/17 22:49:28;;;;;;;;;;;10.50;99.90;;;;;;8392139;28;20621;-69
2023/02/17 22:53:29;;;;;;;;;;;10.50;99.90;;;;;;8393241;28;19932;-69
2023/02/17 22:57:31;;;;;;;;;;;10.40;99.90;;;;;;8394607;28;20391;-69
2023/02/17 23:01:33;;;;;;;;;;;10.50;99.90;;;;;;8373518;28;20308;-69
2023/02/17 23:05:35;;;;;;;;;;;10.50;99.90;;;;;;8394539;28;19979;-69
2023/02/17 23:09:37;;;;;;;;;;;10.50;99.90;;;;;;8393099;28;20575;-69
2023/02/17 23:18:42;;;;;;;;;;;10.40;99.90;;;;;;8390559;28;19923;-69
2023/02/17 23:22:44;;;;;;;;;;;10.40;99.90;;;;;;8374586;28;19939;-69
2023/02/17 23:26:46;;;;;;;;;;;10.30;99.90;;;;;;8382729;28;19935;-68
2023/02/17 23:30:48;;;;;;;;;;;10.30;99.90;;;;;;8391212;28;19939;-69
2023/02/17 23:34:49;;;;;;;;;;;10.20;99.90;;;;;;8388661;28;20383;-69
2023/02/17 23:38:51;;;;;;;;;;;10.20;99.90;;;;;;8387046;28;19935;-69
2023/02/17 23:42:53;;;;;;;;;;;10.20;99.90;;;;;;8368025;28;20388;-69
2023/02/17 23:46:54;;;;;;;;;;;10.10;99.90;;;;;;8369976;28;19975;-69
2023/02/17 23:50:57;;;;;;;;;;;10.10;99.90;;;;;;8392790;28;19924;-69
2023/02/17 23:54:59;;;;;;;;;;;10.10;99.90;;;;;;8362147;28;19990;-69